createdAt,value
2022-12-13T00:00:51.724Z,4.47
2022-12-13T00:03:19.336Z,4.40
2022-12-13T00:05:47.119Z,3.90
2022-12-13T00:08:14.935Z,4.73
2022-12-13T00:10:43.463Z,4.33
2022-12-13T00:13:11.166Z,4.17
2022-12-13T00:15:38.776Z,4.63
2022-12-13T00:18:07.853Z,3.40
2022-12-13T00:20:35.862Z,3.87
2022-12-13T00:23:03.502Z,3.77
2022-12-13T00:25:31.163Z,3.70
2022-12-13T00:27:58.820Z,3.90
2022-12-13T00:30:26.604Z,3.37
2022-12-13T00:32:54.433Z,3.80
2022-12-13T00:35:23.413Z,4.10
2022-12-13T00:37:51.035Z,4.23
2022-12-13T00:40:18.708Z,4.37
2022-12-13T00:42:46.313Z,3.90
2022-12-13T00:45:14.450Z,4.40
2022-12-13T00:47:42.374Z,4.50
2022-12-13T00:50:10.193Z,5.23
2022-12-13T00:52:39.210Z,4.53
2022-12-13T00:55:07.497Z,4.50
2022-12-13T00:57:35.691Z,4.27
2022-12-13T01:00:03.357Z,4.40
2022-12-13T01:02:31.182Z,4.27
2022-12-13T01:04:59.315Z,4.37
2022-12-13T01:07:26.961Z,3.93
2022-12-13T01:09:56.030Z,4.30
2022-12-13T01:12:24.878Z,4.30
2022-12-13T01:14:56.083Z,4.97
2022-12-13T01:17:23.926Z,4.53
2022-12-13T01:19:51.646Z,4.73
2022-12-13T01:22:19.623Z,3.97
2022-12-13T01:24:47.263Z,5.10
2022-12-13T01:27:16.296Z,4.97
2022-12-13T01:29:43.926Z,4.87
2022-12-13T01:32:11.603Z,5.17
2022-12-13T01:34:39.391Z,5.47
2022-12-13T01:37:07.071Z,4.87
2022-12-13T01:39:38.186Z,4.43
2022-12-13T01:42:06.234Z,5.67
2022-12-13T01:44:52.445Z,5.53
2022-12-13T01:47:24.383Z,5.07
2022-12-13T01:49:52.415Z,5.43
2022-12-13T01:52:20.221Z,6.03
2022-12-13T01:54:49.350Z,5.00
2022-12-13T01:57:18.920Z,6.20
2022-12-13T01:59:47.100Z,5.43
2022-12-13T02:02:15.480Z,5.90
2022-12-13T02:04:46.570Z,6.53
2022-12-13T02:07:23.296Z,5.83
2022-12-13T02:09:56.663Z,5.60
2022-12-13T02:12:29.571Z,7.00
2022-12-13T02:15:00.938Z,5.23
2022-12-13T02:17:34.119Z,6.00
2022-12-13T02:20:24.644Z,6.63
2022-12-13T02:22:59.761Z,7.40
2022-12-13T02:25:42.166Z,6.40
2022-12-13T02:28:30.431Z,5.37
2022-12-13T02:31:04.468Z,6.40
2022-12-13T02:33:37.119Z,5.13
2022-12-13T02:36:09.363Z,6.17
2022-12-13T02:38:40.463Z,5.47
2022-12-13T02:41:14.551Z,6.27
2022-12-13T02:43:46.290Z,6.27
2022-12-13T02:46:17.026Z,6.10
2022-12-13T02:48:46.297Z,5.50
2022-12-13T02:51:14.169Z,5.10
2022-12-13T02:53:42.652Z,6.70
2022-12-13T02:56:10.328Z,5.57
2022-12-13T02:58:39.110Z,6.67
2022-12-13T03:01:27.901Z,5.80
2022-12-13T03:04:02.842Z,5.77
2022-12-13T03:06:34.885Z,5.10
2022-12-13T03:09:12.064Z,6.40
2022-12-13T03:12:03.840Z,6.17
2022-12-13T03:14:35.014Z,6.33
2022-12-13T03:17:03.554Z,6.57
2022-12-13T03:19:32.653Z,5.57
2022-12-13T03:22:00.277Z,7.03
2022-12-13T03:24:27.997Z,6.20
2022-12-13T03:26:55.670Z,8.03
2022-12-13T03:29:24.641Z,7.57
2022-12-13T03:31:52.765Z,7.67
2022-12-13T03:34:22.823Z,7.50
2022-12-13T03:36:53.128Z,7.43
2022-12-13T03:39:21.002Z,7.27
2022-12-13T03:41:48.786Z,7.47
2022-12-13T03:44:16.689Z,7.50
2022-12-13T03:46:44.328Z,7.33
2022-12-13T03:49:16.859Z,7.17
2022-12-13T03:51:45.276Z,7.73
2022-12-13T03:54:14.354Z,8.30
2022-12-13T03:56:42.001Z,8.57
2022-12-13T03:59:09.729Z,8.90
2022-12-13T04:01:37.428Z,8.63
2022-12-13T04:04:05.122Z,8.97
2022-12-13T04:06:33.332Z,10.50
2022-12-13T04:09:01.355Z,8.13
2022-12-13T04:11:48.270Z,8.13
2022-12-13T04:14:22.441Z,8.30
2022-12-13T04:16:50.725Z,7.10
2022-12-13T04:19:23.379Z,9.13
2022-12-13T04:21:54.506Z,7.47
2022-12-13T04:24:22.343Z,6.97
2022-12-13T04:27:01.550Z,5.93
2022-12-13T04:29:33.962Z,5.63
2022-12-13T04:32:02.634Z,7.63
2022-12-13T04:34:36.545Z,9.47
2022-12-13T04:37:04.795Z,6.97
2022-12-13T04:39:34.219Z,7.10
2022-12-13T04:42:03.654Z,6.17
2022-12-13T04:44:36.559Z,6.67
2022-12-13T04:47:05.114Z,8.07
2022-12-13T04:49:32.789Z,8.83
2022-12-13T04:52:01.609Z,8.63
2022-12-13T04:54:35.688Z,9.07
2022-12-13T04:57:06.612Z,8.23
2022-12-13T04:59:34.309Z,7.17
2022-12-13T05:02:02.030Z,6.40
2022-12-13T05:04:33.027Z,8.63
2022-12-13T05:07:01.333Z,8.33
2022-12-13T05:09:29.007Z,8.10
2022-12-13T05:12:01.702Z,8.83
2022-12-13T05:14:31.302Z,9.60
2022-12-13T05:16:59.028Z,8.37
2022-12-13T05:19:30.552Z,7.00
2022-12-13T05:22:01.546Z,8.37
2022-12-13T05:24:29.872Z,8.83
2022-12-13T05:26:58.419Z,8.40
2022-12-13T05:29:27.695Z,8.40
2022-12-13T05:31:56.799Z,9.87
2022-12-13T05:34:24.548Z,8.00
2022-12-13T05:36:52.422Z,8.17
2022-12-13T05:39:28.463Z,6.80
2022-12-13T05:42:01.364Z,7.37
2022-12-13T05:44:30.234Z,6.67
2022-12-13T05:46:59.346Z,9.87
2022-12-13T05:49:29.936Z,10.73
2022-12-13T05:51:57.537Z,9.07
2022-12-13T05:54:25.355Z,8.77
2022-12-13T05:56:53.014Z,10.47
2022-12-13T05:59:20.824Z,9.73
2022-12-13T06:01:48.525Z,9.57
2022-12-13T06:04:22.277Z,9.67
2022-12-13T06:06:51.353Z,9.70
2022-12-13T06:09:19.337Z,9.23
2022-12-13T06:11:47.680Z,6.23
2022-12-13T06:14:21.608Z,10.23
2022-12-13T06:16:50.747Z,9.30
2022-12-13T06:19:19.858Z,9.37
2022-12-13T06:21:47.531Z,5.83
2022-12-13T06:24:15.986Z,10.67
2022-12-13T06:26:45.019Z,8.97
2022-12-13T06:29:13.138Z,8.83
2022-12-13T06:32:01.428Z,9.07
2022-12-13T06:34:32.701Z,9.37
2022-12-13T06:37:01.032Z,7.50
2022-12-13T06:39:33.230Z,11.17
2022-12-13T06:42:01.627Z,10.87
2022-12-13T06:44:29.340Z,9.47
2022-12-13T06:47:10.504Z,8.33
2022-12-13T06:49:42.307Z,8.57
2022-12-13T06:52:10.464Z,8.60
2022-12-13T06:54:38.123Z,6.87
2022-12-13T06:57:05.823Z,6.70
2022-12-13T06:59:33.776Z,5.27
2022-12-13T07:02:03.556Z,5.77
2022-12-13T07:04:31.951Z,6.97
2022-12-13T07:07:01.846Z,9.37
2022-12-13T07:09:29.931Z,8.87
2022-12-13T07:11:57.639Z,8.17
2022-12-13T07:14:25.301Z,7.43
2022-12-13T07:16:56.631Z,9.63
2022-12-13T07:19:27.386Z,10.30
2022-12-13T07:22:05.956Z,8.30
2022-12-13T07:24:34.047Z,10.60
2022-12-13T07:27:01.716Z,7.70
2022-12-13T07:29:29.366Z,8.33
2022-12-13T07:32:01.805Z,7.77
2022-12-13T07:34:30.058Z,8.93
2022-12-13T07:36:57.810Z,9.73
2022-12-13T07:39:27.164Z,8.67
2022-12-13T07:41:55.681Z,8.90
2022-12-13T07:44:23.413Z,10.00
2022-12-13T07:46:51.159Z,11.80
2022-12-13T07:49:18.847Z,9.33
2022-12-13T07:51:46.572Z,10.27
2022-12-13T07:54:14.280Z,10.10
2022-12-13T07:56:43.487Z,12.93
2022-12-13T07:59:11.403Z,10.00
2022-12-13T08:01:39.129Z,9.50
2022-12-13T08:04:06.927Z,9.53
2022-12-13T08:06:36.208Z,8.97
2022-12-13T08:09:03.869Z,10.30
2022-12-13T08:11:32.080Z,8.73
2022-12-13T08:14:01.084Z,8.50
2022-12-13T08:16:29.903Z,8.03
2022-12-13T08:19:02.245Z,10.47
2022-12-13T08:24:22.331Z,9.33
2022-12-13T08:26:50.266Z,9.27
2022-12-13T08:29:22.728Z,9.67
2022-12-13T08:32:01.730Z,7.67
2022-12-13T08:34:29.561Z,7.83
2022-12-13T08:37:02.199Z,7.17
2022-12-13T08:39:33.997Z,8.27
2022-12-13T08:42:16.524Z,9.33
2022-12-13T08:44:47.257Z,11.80
2022-12-13T08:47:23.110Z,9.30
2022-12-13T08:49:53.737Z,11.07
2022-12-13T08:52:22.233Z,8.80
2022-12-13T08:54:49.897Z,7.07
2022-12-13T08:57:17.573Z,7.20
2022-12-13T08:59:45.268Z,8.43
2022-12-13T09:02:14.909Z,12.23
2022-12-13T09:04:42.687Z,8.73
2022-12-13T09:07:10.285Z,7.13
2022-12-13T09:09:38.005Z,6.73
2022-12-13T09:12:10.365Z,5.83
2022-12-13T09:14:45.510Z,7.30
2022-12-13T09:17:24.310Z,6.87
2022-12-13T09:19:58.183Z,7.80
2022-12-13T09:22:33.448Z,6.80
2022-12-13T09:25:02.401Z,6.20
2022-12-13T09:27:31.052Z,5.60
2022-12-13T09:30:08.998Z,7.33
2022-12-13T09:32:40.807Z,6.53
2022-12-13T09:35:12.507Z,5.87
2022-12-13T09:40:59.116Z,8.00
2022-12-13T09:43:42.448Z,7.03
2022-12-13T09:46:26.089Z,8.27
2022-12-13T09:49:22.813Z,7.10
2022-12-13T09:55:21.149Z,6.83
2022-12-13T09:57:49.599Z,8.77
2022-12-13T10:00:19.083Z,8.43
2022-12-13T10:02:47.484Z,8.50
2022-12-13T10:05:35.702Z,8.97
2022-12-13T10:08:07.421Z,9.10
2022-12-13T10:10:35.078Z,7.70
2022-12-13T10:13:05.707Z,7.33
2022-12-13T10:15:34.429Z,8.23
2022-12-13T10:18:04.054Z,9.07
2022-12-13T10:20:34.295Z,7.70
2022-12-13T10:23:31.636Z,8.93
2022-12-13T10:25:51.707Z,8.70
2022-12-13T10:28:20.848Z,8.73
2022-12-13T10:30:48.445Z,9.70
2022-12-13T10:33:24.657Z,8.77
2022-12-13T10:36:13.359Z,8.97
2022-12-13T10:38:42.242Z,8.37
2022-12-13T10:41:26.483Z,8.03
2022-12-13T10:44:08.551Z,10.10
2022-12-13T10:46:38.753Z,8.93
2022-12-13T10:49:14.350Z,10.13
2022-12-13T10:51:45.569Z,9.90
2022-12-13T10:54:16.864Z,9.77
2022-12-13T10:56:46.588Z,11.20
2022-12-13T10:59:24.468Z,12.07
2022-12-13T11:01:52.354Z,10.40
2022-12-13T11:04:27.850Z,10.03
2022-12-13T11:06:57.861Z,9.77
2022-12-13T11:09:30.069Z,10.07
2022-12-13T11:12:13.115Z,10.23
2022-12-13T11:14:48.694Z,10.10
2022-12-13T11:17:18.027Z,10.73
2022-12-13T11:19:47.630Z,9.80
2022-12-13T11:22:23.141Z,10.40
2022-12-13T11:24:51.628Z,11.07
2022-12-13T11:27:40.139Z,11.10
2022-12-13T11:30:13.012Z,11.80
2022-12-13T11:32:52.529Z,10.40
2022-12-13T11:35:26.971Z,11.73
2022-12-13T11:38:04.446Z,10.37
2022-12-13T11:40:33.718Z,11.37
2022-12-13T11:43:03.546Z,11.77
2022-12-13T11:45:32.507Z,12.63
2022-12-13T11:48:14.260Z,11.73
2022-12-13T11:50:43.121Z,11.83
2022-12-13T11:53:22.219Z,12.07
2022-12-13T11:55:52.573Z,12.87
2022-12-13T11:58:45.775Z,11.50
2022-12-13T12:01:12.744Z,10.80
2022-12-13T12:03:42.957Z,10.33
2022-12-13T12:06:13.500Z,9.93
2022-12-13T12:08:47.271Z,8.57
2022-12-13T12:11:20.181Z,9.50
2022-12-13T12:13:51.467Z,10.10
2022-12-13T12:16:24.294Z,10.00
2022-12-13T12:18:52.205Z,9.83
2022-12-13T12:21:37.339Z,9.80
2022-12-13T12:24:21.619Z,11.70
2022-12-13T12:26:56.405Z,11.50
2022-12-13T12:29:45.845Z,11.30
2022-12-13T12:32:19.305Z,11.97
2022-12-13T12:34:50.206Z,13.03
2022-12-13T12:37:23.350Z,11.87
2022-12-13T12:39:59.702Z,12.07
2022-12-13T12:43:13.426Z,12.63
2022-12-13T12:48:52.020Z,13.27
2022-12-13T12:51:18.871Z,14.40
2022-12-13T12:53:48.472Z,16.57
2022-12-13T12:56:24.016Z,15.13
2022-12-13T12:58:56.781Z,14.80
2022-12-13T13:01:36.133Z,14.63
2022-12-13T13:04:13.304Z,14.80
2022-12-13T13:06:53.238Z,14.27
2022-12-13T13:09:29.770Z,13.27
2022-12-13T13:12:00.273Z,12.40
2022-12-13T13:14:30.085Z,14.07
2022-12-13T13:16:58.101Z,13.63
2022-12-13T13:19:41.989Z,14.77
2022-12-13T13:22:31.492Z,16.03
2022-12-13T13:25:01.960Z,14.43
2022-12-13T13:27:31.789Z,13.83
2022-12-13T13:30:06.930Z,16.97
2022-12-13T13:32:37.184Z,14.70
2022-12-13T13:35:26.235Z,15.47
2022-12-13T13:37:53.891Z,12.67
2022-12-13T13:40:30.691Z,11.90
2022-12-13T13:43:13.957Z,12.37
2022-12-13T13:45:55.754Z,12.97
2022-12-13T13:48:36.488Z,12.33
2022-12-13T13:51:15.433Z,12.97
2022-12-13T13:54:04.008Z,12.03
2022-12-13T13:56:50.177Z,12.73
2022-12-13T13:59:38.078Z,13.30
2022-12-13T14:02:24.006Z,17.27
2022-12-13T14:05:17.791Z,14.93
2022-12-13T14:08:03.582Z,15.20
2022-12-13T14:10:38.225Z,13.47
2022-12-13T14:13:44.594Z,16.13
2022-12-13T14:16:34.945Z,13.23
2022-12-13T14:19:33.177Z,12.90
2022-12-13T14:22:10.276Z,14.47
2022-12-13T14:24:42.675Z,11.93
2022-12-13T14:27:13.771Z,13.63
2022-12-13T14:29:48.168Z,14.10
2022-12-13T14:32:26.734Z,16.00
2022-12-13T14:34:55.326Z,15.63
2022-12-13T14:37:27.895Z,15.73
2022-12-13T14:39:55.759Z,14.67
2022-12-13T14:42:24.694Z,16.87
2022-12-13T14:44:52.450Z,13.83
2022-12-13T14:47:20.552Z,13.63
2022-12-13T14:49:51.485Z,15.77
2022-12-13T14:52:26.160Z,16.27
2022-12-13T14:54:58.247Z,12.97
2022-12-13T14:57:27.551Z,16.57
2022-12-13T14:59:55.947Z,17.37
2022-12-13T15:02:31.311Z,19.20
2022-12-13T15:05:00.837Z,20.17
2022-12-13T15:07:29.839Z,19.60
2022-12-13T15:10:00.839Z,18.90
2022-12-13T15:12:30.001Z,20.37
2022-12-13T15:15:00.673Z,19.47
2022-12-13T15:17:31.281Z,22.20
2022-12-13T15:19:59.212Z,21.47
2022-12-13T15:22:29.365Z,19.47
2022-12-13T15:24:59.398Z,21.77
2022-12-13T15:27:27.403Z,22.43
2022-12-13T15:29:55.425Z,23.53
2022-12-13T15:32:23.964Z,22.27
2022-12-13T15:34:52.443Z,23.13
2022-12-13T15:37:29.049Z,22.10
2022-12-13T15:40:01.086Z,23.57
2022-12-13T15:42:31.072Z,22.93
2022-12-13T15:45:00.639Z,24.33
2022-12-13T15:47:29.353Z,22.60
2022-12-13T15:49:58.314Z,23.33
2022-12-13T15:52:35.867Z,23.40
2022-12-13T15:55:19.639Z,22.67
2022-12-13T15:57:51.926Z,26.17
2022-12-13T16:00:31.745Z,27.93
2022-12-13T16:03:08.928Z,25.13
2022-12-13T16:05:38.889Z,28.33
2022-12-13T16:08:13.852Z,33.20
2022-12-13T16:10:46.820Z,35.07
2022-12-13T16:13:26.115Z,29.27
2022-12-13T16:16:00.377Z,26.73
2022-12-13T16:18:44.065Z,26.57
2022-12-13T16:21:11.824Z,23.47
2022-12-13T16:23:39.477Z,21.97
2022-12-13T16:26:09.242Z,16.80
2022-12-13T16:28:38.513Z,16.27
2022-12-13T16:31:15.861Z,15.23
2022-12-13T16:33:44.928Z,14.17
2022-12-13T16:36:12.842Z,16.17
2022-12-13T16:38:40.577Z,17.53
2022-12-13T16:41:09.612Z,24.67
2022-12-13T16:43:41.304Z,27.03
2022-12-13T16:47:12.765Z,28.13
2022-12-13T16:49:02.393Z,28.63
2022-12-13T16:51:30.087Z,25.83
2022-12-13T16:53:57.707Z,20.57
2022-12-13T16:56:25.355Z,18.83
2022-12-13T16:58:54.421Z,21.17
2022-12-13T17:01:22.166Z,21.10
2022-12-13T17:03:49.834Z,21.10
2022-12-13T17:06:24.480Z,21.57
2022-12-13T17:08:52.105Z,21.53
2022-12-13T17:11:20.185Z,21.93
2022-12-13T17:13:49.735Z,22.50
2022-12-13T17:16:18.957Z,22.27
2022-12-13T17:18:46.667Z,25.57
2022-12-13T17:21:14.548Z,29.70
2022-12-13T17:23:42.151Z,27.07
2022-12-13T17:26:10.777Z,27.57
2022-12-13T17:28:38.887Z,28.10
2022-12-13T17:31:07.459Z,27.73
2022-12-13T17:33:37.262Z,24.40
2022-12-13T17:36:05.826Z,28.17
2022-12-13T17:38:33.690Z,31.00
2022-12-13T17:41:01.506Z,25.50
2022-12-13T17:43:34.800Z,24.30
2022-12-13T17:46:03.446Z,27.80
2022-12-13T17:48:37.205Z,22.20
2022-12-13T17:51:08.824Z,21.73
2022-12-13T17:53:37.043Z,23.07
2022-12-13T17:56:06.676Z,28.00
2022-12-13T17:58:34.769Z,28.30
2022-12-13T18:01:10.673Z,29.63
2022-12-13T18:03:38.352Z,27.30
2022-12-13T18:06:07.138Z,25.70
2022-12-13T18:08:36.882Z,26.60
2022-12-13T18:13:54.963Z,22.13
2022-12-13T18:16:23.508Z,22.90
2022-12-13T18:18:55.365Z,23.17
2022-12-13T18:21:25.853Z,18.63
2022-12-13T18:23:56.160Z,22.00
2022-12-13T18:26:24.672Z,18.77
2022-12-13T18:28:52.701Z,16.40
2022-12-13T18:31:22.092Z,17.87
2022-12-13T18:33:50.546Z,19.73
2022-12-13T18:36:18.437Z,21.17
2022-12-13T18:38:46.299Z,16.73
2022-12-13T18:41:17.388Z,21.40
2022-12-13T18:43:45.872Z,19.80
2022-12-13T18:46:14.261Z,21.90
2022-12-13T18:48:42.054Z,21.13
2022-12-13T18:51:10.871Z,20.80
2022-12-13T18:53:39.199Z,19.53
2022-12-13T18:56:11.579Z,20.23
2022-12-13T18:58:43.406Z,19.97
2022-12-13T19:01:13.146Z,19.67
2022-12-13T19:03:41.054Z,20.50
2022-12-13T19:06:09.069Z,18.07
2022-12-13T19:08:37.138Z,18.67
2022-12-13T19:11:05.535Z,18.03
2022-12-13T19:13:33.880Z,18.37
2022-12-13T19:16:07.543Z,19.40
2022-12-13T19:18:35.672Z,20.67
2022-12-13T19:21:03.341Z,19.23
2022-12-13T19:23:32.197Z,19.40
2022-12-13T19:26:05.095Z,19.33
2022-12-13T19:28:32.749Z,19.17
2022-12-13T19:31:00.462Z,18.70
2022-12-13T19:33:29.589Z,22.23
2022-12-13T19:35:57.258Z,20.53
2022-12-13T19:38:25.298Z,19.00
2022-12-13T19:40:53.066Z,14.27
2022-12-13T19:43:21.570Z,16.47
2022-12-13T19:45:49.337Z,15.67
2022-12-13T19:48:17.204Z,14.90
2022-12-13T19:50:46.689Z,15.03
2022-12-13T19:53:14.349Z,15.40
2022-12-13T19:55:44.041Z,16.73
2022-12-13T19:58:12.007Z,15.60
2022-12-13T20:00:39.682Z,14.87
2022-12-13T20:03:07.578Z,13.63
2022-12-13T20:05:36.002Z,14.13
2022-12-13T20:08:05.414Z,14.80
2022-12-13T20:10:34.722Z,13.17
2022-12-13T20:13:02.870Z,14.77
2022-12-13T20:15:30.845Z,16.03
2022-12-13T20:17:58.810Z,14.73
2022-12-13T20:20:40.994Z,17.30
2022-12-13T20:23:15.846Z,17.50
2022-12-13T20:25:43.540Z,19.37
2022-12-13T20:28:16.477Z,21.07
2022-12-13T20:30:44.324Z,18.10
2022-12-13T20:33:14.737Z,20.37
2022-12-13T20:36:22.146Z,20.47
2022-12-13T20:38:35.623Z,18.77
2022-12-13T20:41:03.727Z,17.33
2022-12-13T20:43:31.867Z,19.00
2022-12-13T20:46:03.352Z,18.70
2022-12-13T20:48:31.270Z,17.67
2022-12-13T20:51:02.309Z,16.23
2022-12-13T20:53:32.148Z,15.93
2022-12-13T20:56:01.649Z,24.33
2022-12-13T20:58:29.394Z,23.80
2022-12-13T21:00:57.079Z,20.17
2022-12-13T21:03:25.551Z,20.67
2022-12-13T21:05:53.738Z,17.60
2022-12-13T21:08:39.003Z,13.30
2022-12-13T21:11:26.723Z,14.50
2022-12-13T21:14:03.821Z,13.43
2022-12-13T21:16:34.932Z,12.37
2022-12-13T21:19:02.853Z,12.10
2022-12-13T21:21:30.855Z,12.67
2022-12-13T21:23:58.600Z,11.07
2022-12-13T21:26:34.683Z,10.63
2022-12-13T21:29:04.556Z,11.27
2022-12-13T21:31:32.253Z,13.23
2022-12-13T21:34:00.564Z,13.37
2022-12-13T21:36:29.180Z,15.90
2022-12-13T21:38:57.306Z,15.97
2022-12-13T21:41:25.510Z,13.97
2022-12-13T21:43:54.778Z,18.27
2022-12-13T21:46:26.013Z,16.23
2022-12-13T21:48:57.981Z,17.03
2022-12-13T21:51:26.231Z,15.43
2022-12-13T21:53:54.424Z,15.33
2022-12-13T21:56:40.849Z,12.77
2022-12-13T21:59:17.590Z,15.33
2022-12-13T22:02:04.325Z,15.73
2022-12-13T22:04:32.380Z,14.73
2022-12-13T22:07:00.349Z,16.33
2022-12-13T22:09:28.059Z,14.97
2022-12-13T22:11:56.738Z,14.37
2022-12-13T22:14:25.825Z,15.30
2022-12-13T22:16:53.790Z,14.13
2022-12-13T22:19:21.490Z,15.83
2022-12-13T22:21:49.639Z,16.30
2022-12-13T22:24:17.656Z,16.30
2022-12-13T22:26:45.267Z,17.53
2022-12-13T22:29:13.795Z,19.53
2022-12-13T22:31:42.987Z,20.07
2022-12-13T22:34:16.670Z,20.60
2022-12-13T22:36:44.746Z,20.37
2022-12-13T22:39:15.986Z,20.30
2022-12-13T22:41:43.678Z,18.17
2022-12-13T22:44:12.261Z,20.97
2022-12-13T22:46:39.962Z,18.27
2022-12-13T22:49:09.264Z,16.13
2022-12-13T22:51:37.308Z,18.63
2022-12-13T22:54:05.189Z,17.20
2022-12-13T22:56:32.836Z,15.37
2022-12-13T22:59:02.255Z,16.47
2022-12-13T23:01:30.815Z,15.13
2022-12-13T23:03:58.716Z,12.13
2022-12-13T23:06:29.638Z,13.13
2022-12-13T23:08:57.942Z,14.70
2022-12-13T23:11:43.679Z,11.37
2022-12-13T23:14:12.321Z,12.30
2022-12-13T23:16:40.217Z,10.57
2022-12-13T23:19:40.335Z,13.13
2022-12-13T23:21:59.262Z,13.27
2022-12-13T23:24:27.430Z,13.20
2022-12-13T23:26:55.236Z,12.67
2022-12-13T23:29:22.872Z,12.83
2022-12-13T23:31:50.656Z,13.37
2022-12-13T23:34:18.364Z,12.33
2022-12-13T23:36:46.001Z,12.40
2022-12-13T23:39:15.193Z,12.03
2022-12-13T23:41:42.881Z,12.93
2022-12-13T23:44:11.146Z,11.87
2022-12-13T23:46:38.829Z,12.47
2022-12-13T23:49:07.096Z,11.77
2022-12-13T23:51:35.361Z,11.60
2022-12-13T23:54:03.013Z,12.37
2022-12-13T23:56:31.998Z,12.63
2022-12-13T23:58:59.664Z,12.43
